Time;durP1;ratioP1;P1;durP2;ratioP2;P2;SDS_P1;SDS_P2;PMS_P1;PMS_P2;Temp;Humidity;BMP_temperature;BMP_pressure;BME280_temperature;BME280_humidity;BME280_pressure;Samples;Min_cycle;Max_cycle;Signal;HPM_P1;HPM_P2
2022/10/20 00:00:04;;;;;;;0.30;0.10;;;;;;;5.88;100.00;99395.95;1704111;82;22506;-47
2022/10/20 00:02:31;;;;;;;2.67;0.10;;;;;;;5.87;100.00;99404.85;1710427;82;21053;-46
2022/10/20 00:04:58;;;;;;;0.20;0.10;;;;;;;5.84;100.00;99398.30;1698226;82;21261;-45
2022/10/20 00:07:24;;;;;;;0.10;0.10;;;;;;;5.80;100.00;99407.79;1709016;82;21072;-47
2022/10/20 00:10:55;;;;;;;0.20;0.10;;;;;;;5.65;100.00;99414.53;1786775;78;23095;-47
2022/10/20 00:13:22;;;;;;;0.30;0.00;;;;;;;5.56;100.00;99418.38;1775856;79;20967;-49
2022/10/20 00:15:50;;;;;;;2.83;0.10;;;;;;;5.50;100.00;99419.05;1768967;79;21819;-48
2022/10/20 00:18:17;;;;;;;3.03;0.10;;;;;;;5.41;100.00;99419.35;1740502;80;21085;-46
2022/10/20 00:20:44;;;;;;;0.40;0.03;;;;;;;5.33;100.00;99421.81;1739332;81;21096;-47
2022/10/20 00:23:10;;;;;;;0.30;0.10;;;;;;;5.26;100.00;99420.27;1715550;81;21455;-47
2022/10/20 00:25:37;;;;;;;0.40;0.10;;;;;;;5.23;100.00;99424.36;1717656;82;21084;-47
2022/10/20 00:28:04;;;;;;;3.60;0.10;;;;;;;5.20;100.00;99420.91;1717608;82;21961;-48
2022/10/20 00:30:30;;;;;;;0.10;0.10;;;;;;;5.18;100.00;99426.78;1723157;82;20973;-48
2022/10/20 00:32:57;;;;;;;0.30;0.10;;;;;;;5.14;100.00;99430.45;1724297;82;20994;-47
2022/10/20 00:35:23;;;;;;;0.60;0.10;;;;;;;5.10;100.00;99429.69;1726113;82;20981;-47
2022/10/20 00:37:49;;;;;;;0.07;0.03;;;;;;;5.03;100.00;99430.77;1723034;82;21078;-47
2022/10/20 00:40:16;;;;;;;0.30;0.10;;;;;;;4.97;100.00;99436.30;1720095;82;22866;-48
2022/10/20 00:42:46;;;;;;;0.73;0.10;;;;;;;4.89;100.00;99433.88;1711014;81;21072;-47
2022/10/20 00:45:15;;;;;;;0.10;0.10;;;;;;;4.84;100.00;99442.94;1710938;82;21064;-47
2022/10/20 00:47:53;;;;;;;0.10;0.10;;;;;;;4.82;100.00;99445.66;1735823;81;21575;-47
2022/10/20 00:50:33;;;;;;;0.10;0.10;;;;;;;4.79;100.00;99441.73;1740297;81;21128;-47
2022/10/20 00:52:59;;;;;;;0.63;0.10;;;;;;;4.75;100.00;99437.88;1705297;81;21801;-47
2022/10/20 00:55:28;;;;;;;0.40;0.07;;;;;;;4.71;100.00;99438.42;1699110;82;22465;-47
2022/10/20 00:57:56;;;;;;;0.10;0.10;;;;;;;4.70;100.00;99443.79;1700300;82;21721;-47
2022/10/20 01:00:23;;;;;;;0.13;0.00;;;;;;;4.65;100.00;99439.06;1691861;82;21426;-46
2022/10/20 01:02:50;;;;;;;0.23;0.10;;;;;;;4.62;100.00;99448.47;1689858;82;21492;-47
2022/10/20 01:05:17;;;;;;;0.10;0.03;;;;;;;4.60;100.00;99452.97;1689080;83;21967;-47
2022/10/20 01:07:45;;;;;;;0.20;0.10;;;;;;;4.54;100.00;99451.36;1689452;82;21161;-47
2022/10/20 01:10:12;;;;;;;0.30;0.10;;;;;;;4.50;100.00;99439.06;1667219;83;21653;-47
2022/10/20 01:13:08;;;;;;;1.27;0.10;;;;;;;4.46;100.00;99441.38;1651095;85;21065;-46
2022/10/20 01:15:58;;;;;;;0.93;0.00;;;;;;;4.44;100.00;99447.20;1650124;85;21061;-48
2022/10/20 01:18:30;;;;;;;0.07;0.00;;;;;;;4.43;100.00;99450.78;1650620;85;22533;-47
2022/10/20 01:21:33;;;;;;;0.13;0.00;;;;;;;4.45;100.00;99448.50;1647993;85;21549;-48
2022/10/20 01:24:35;;;;;;;0.10;0.00;;;;;;;4.48;100.00;99446.22;1648697;85;21098;-47
2022/10/20 01:27:31;;;;;;;1.50;0.00;;;;;;;4.52;100.00;99444.73;1598440;88;21737;-48
2022/10/20 01:30:21;;;;;;;0.07;0.00;;;;;;;4.56;100.00;99457.08;1646452;85;21084;-48
2022/10/20 01:33:16;;;;;;;0.20;0.10;;;;;;;4.57;100.00;99445.95;1649782;85;22020;-48
2022/10/20 01:36:00;;;;;;;1.02;0.10;;;;;;;4.56;100.00;99450.87;1649352;85;29127;-47
2022/10/20 01:38:49;;;;;;;0.40;0.10;;;;;;;4.54;100.00;99453.58;1649731;85;21065;-47
2022/10/20 01:41:41;;;;;;;0.10;0.10;;;;;;;4.53;100.00;99458.94;1677320;83;21070;-46
2022/10/20 01:44:10;;;;;;;0.30;0.20;;;;;;;4.50;100.00;99465.26;1652300;85;21108;-47
2022/10/20 01:46:38;;;;;;;0.40;0.10;;;;;;;4.49;100.00;99463.50;1651260;85;21841;-47
2022/10/20 01:49:04;;;;;;;0.10;0.00;;;;;;;4.50;100.00;99472.38;1650261;85;21121;-48
2022/10/20 01:51:31;;;;;;;0.30;0.10;;;;;;;4.48;100.00;99461.75;1649622;85;21083;-47
2022/10/20 01:53:58;;;;;;;0.10;0.00;;;;;;;4.48;100.00;99461.75;1667442;84;21074;-47
2022/10/20 01:56:57;;;;;;;0.10;0.03;;;;;;;4.49;100.00;99466.17;1709020;82;21126;-47
2022/10/20 01:59:38;;;;;;;0.10;0.00;;;;;;;4.48;100.00;99459.55;1710863;82;22932;-47
2022/10/20 02:02:19;;;;;;;1.07;0.00;;;;;;;4.43;100.00;99463.66;1706496;82;21061;-48
2022/10/20 02:05:03;;;;;;;0.10;0.00;;;;;;;4.39;100.00;99468.67;1706731;82;21089;-47
2022/10/20 02:07:29;;;;;;;1.00;0.10;;;;;;;4.31;100.00;99466.67;1712251;82;21214;-47
2022/10/20 02:10:11;;;;;;;0.10;0.00;;;;;;;4.22;100.00;99469.59;1713748;81;21085;-47
2022/10/20 02:12:40;;;;;;;1.67;0.10;;;;;;;4.18;100.00;99474.11;1732627;81;21066;-46
2022/10/20 02:15:08;;;;;;;1.13;0.10;;;;;;;4.18;100.00;99488.77;1731055;81;21050;-47
2022/10/20 02:17:36;;;;;;;0.40;0.10;;;;;;;4.21;100.00;99490.94;1734276;81;21161;-47
2022/10/20 02:20:04;;;;;;;0.30;0.10;;;;;;;4.17;100.00;99492.34;1731224;81;21105;-47
2022/10/20 02:22:31;;;;;;;0.20;0.10;;;;;;;4.16;100.00;99495.07;1706334;82;21097;-48
2022/10/20 02:24:57;;;;;;;0.23;0.10;;;;;;;4.16;100.00;99493.28;1730703;81;21920;-47
2022/10/20 02:27:34;;;;;;;2.00;0.03;;;;;;;4.19;100.00;99494.97;1734251;81;21038;-47
2022/10/20 02:30:11;;;;;;;0.20;0.00;;;;;;;4.20;100.00;99496.72;1731059;81;21464;-47
2022/10/20 02:32:40;;;;;;;0.30;0.10;;;;;;;4.19;100.00;99498.97;1728253;81;21133;-46
2022/10/20 02:35:10;;;;;;;0.10;0.00;;;;;;;4.18;100.00;99503.88;1734745;81;21062;-46
2022/10/20 02:37:36;;;;;;;0.93;0.00;;;;;;;4.17;100.00;99501.66;1733109;81;21801;-46
2022/10/20 02:40:04;;;;;;;0.60;0.10;;;;;;;4.21;100.00;99501.59;1730352;81;21376;-47
2022/10/20 02:42:31;;;;;;;0.13;0.10;;;;;;;4.24;100.00;99514.84;1732604;81;21469;-47
2022/10/20 02:44:58;;;;;;;0.27;0.10;;;;;;;4.28;100.00;99507.17;1731946;81;21496;-47
2022/10/20 02:47:25;;;;;;;0.10;0.00;;;;;;;4.30;100.00;99503.56;1729366;81;21256;-47
2022/10/20 02:49:52;;;;;;;0.20;0.10;;;;;;;4.32;100.00;99508.86;1732579;81;22872;-47
2022/10/20 02:52:18;;;;;;;0.30;0.10;;;;;;;4.32;100.00;99516.84;1728201;81;21923;-46
2022/10/20 02:54:45;;;;;;;0.10;0.10;;;;;;;4.30;100.00;99518.67;1729895;81;21065;-47
2022/10/20 02:57:12;;;;;;;0.20;0.10;;;;;;;4.28;100.00;99509.38;1730909;81;21130;-46
2022/10/20 02:59:38;;;;;;;0.20;0.10;;;;;;;4.28;100.00;99513.83;1732225;81;21624;-48
2022/10/20 03:02:04;;;;;;;0.50;0.00;;;;;;;4.27;100.00;99511.63;1730001;81;21976;-47
2022/10/20 03:04:32;;;;;;;0.10;0.03;;;;;;;4.27;100.00;99514.28;1730887;81;21083;-47
2022/10/20 03:06:59;;;;;;;0.10;0.07;;;;;;;4.28;100.00;99504.50;1729733;81;21492;-48
2022/10/20 03:09:26;;;;;;;0.20;0.10;;;;;;;4.28;100.00;99512.50;1734202;81;21057;-46
2022/10/20 03:11:53;;;;;;;0.00;0.00;;;;;;;4.29;100.00;99508.92;1740745;80;20998;-47
2022/10/20 03:14:21;;;;;;;0.30;0.10;;;;;;;4.30;100.00;99510.22;1741755;80;21898;-47
2022/10/20 03:16:47;;;;;;;0.97;0.10;;;;;;;4.30;100.00;99518.22;1741900;80;21257;-47
2022/10/20 03:19:15;;;;;;;1.13;0.10;;;;;;;4.26;100.00;99522.31;1737572;80;21091;-47
2022/10/20 03:21:42;;;;;;;0.30;0.10;;;;;;;4.19;100.00;99522.94;1732727;80;21104;-47
2022/10/20 03:24:08;;;;;;;0.50;0.10;;;;;;;4.16;100.00;99513.72;1741854;80;20981;-47
2022/10/20 03:26:34;;;;;;;0.53;0.10;;;;;;;4.13;100.00;99521.78;1742131;81;23058;-46
2022/10/20 03:29:01;;;;;;;0.20;0.10;;;;;;;4.11;100.00;99514.27;1740317;80;21037;-47
2022/10/20 03:31:27;;;;;;;0.43;0.10;;;;;;;4.12;100.00;99518.69;1739987;80;20988;-47
2022/10/20 03:33:53;;;;;;;1.90;0.10;;;;;;;4.13;100.00;99521.32;1740771;80;21025;-47
2022/10/20 03:36:20;;;;;;;0.40;0.10;;;;;;;4.16;100.00;99521.25;1740483;81;20989;-46
2022/10/20 03:38:46;;;;;;;0.27;0.10;;;;;;;4.18;100.00;99522.06;1738997;80;21775;-48
2022/10/20 03:41:13;;;;;;;0.20;0.10;;;;;;;4.18;100.00;99530.05;1738572;80;21429;-46
2022/10/20 03:43:39;;;;;;;0.40;0.10;;;;;;;4.16;100.00;99523.92;1742003;80;21056;-47
2022/10/20 03:46:08;;;;;;;0.93;0.20;;;;;;;4.14;100.00;99523.53;1730861;80;21049;-48
2022/10/20 03:48:37;;;;;;;0.60;0.10;;;;;;;4.10;100.00;99524.51;1739941;80;21049;-47
2022/10/20 03:51:04;;;;;;;0.13;0.10;;;;;;;4.10;100.00;99533.83;1740029;80;21926;-47
2022/10/20 03:53:31;;;;;;;0.10;0.00;;;;;;;4.08;100.00;99532.53;1737778;80;21052;-47
2022/10/20 03:55:57;;;;;;;0.10;0.00;;;;;;;4.08;100.00;99536.53;1739625;80;21064;-47
2022/10/20 03:58:23;;;;;;;0.40;0.10;;;;;;;4.12;100.00;99536.01;1733955;80;21041;-47
2022/10/20 04:00:50;;;;;;;0.10;0.10;;;;;;;4.11;100.00;99531.13;1742807;80;21614;-47
2022/10/20 04:03:17;;;;;;;0.13;0.10;;;;;;;4.14;100.00;99524.86;1669611;82;21756;-46
2022/10/20 04:05:43;;;;;;;0.20;0.10;;;;;;;4.14;100.00;99529.73;1739506;80;21037;-46
2022/10/20 04:08:11;;;;;;;0.43;0.10;;;;;;;4.17;100.00;99532.75;1741621;80;21081;-48
2022/10/20 04:10:38;;;;;;;0.30;0.10;;;;;;;4.17;100.00;99530.97;1737121;82;21040;-48
2022/10/20 04:13:05;;;;;;;0.60;0.10;;;;;;;4.15;100.00;99530.16;1731107;81;21061;-47
2022/10/20 04:15:31;;;;;;;1.80;0.10;;;;;;;4.14;100.00;99534.19;1735891;81;21827;-47
2022/10/20 04:17:58;;;;;;;4.03;0.10;;;;;;;4.15;100.00;99537.27;1695868;82;21081;-47
2022/10/20 04:20:25;;;;;;;1.23;0.07;;;;;;;4.15;100.00;99531.94;1728820;80;21075;-46
2022/10/20 04:22:53;;;;;;;0.27;0.10;;;;;;;4.13;100.00;99537.30;1732761;80;21051;-47
2022/10/20 04:25:19;;;;;;;0.10;0.10;;;;;;;4.15;100.00;99530.61;1726576;81;21657;-47
2022/10/20 04:27:47;;;;;;;0.20;0.10;;;;;;;4.16;100.00;99535.03;1735865;80;22853;-47
2022/10/20 04:30:14;;;;;;;0.20;0.10;;;;;;;4.14;100.00;99542.18;1732201;80;21512;-47
2022/10/20 04:32:42;;;;;;;1.13;0.10;;;;;;;4.12;100.00;99540.00;1732839;80;21599;-47
2022/10/20 04:35:09;;;;;;;0.10;0.00;;;;;;;4.12;100.00;99547.99;1734175;80;21033;-47
2022/10/20 04:37:35;;;;;;;2.70;0.10;;;;;;;4.10;100.00;99546.70;1739002;80;21455;-47
2022/10/20 04:40:02;;;;;;;0.73;0.03;;;;;;;4.09;100.00;99541.41;1733453;80;21786;-47
2022/10/20 04:42:29;;;;;;;0.10;0.10;;;;;;;4.08;100.00;99552.51;1734054;80;21041;-47
2022/10/20 04:44:56;;;;;;;0.73;0.10;;;;;;;4.10;100.00;99543.16;1729930;80;21386;-47
2022/10/20 04:47:22;;;;;;;1.03;0.10;;;;;;;4.10;100.00;99555.14;1730037;80;21671;-47
2022/10/20 04:49:48;;;;;;;0.23;0.10;;;;;;;4.13;100.00;99553.74;1729793;81;21039;-47
2022/10/20 04:52:16;;;;;;;0.10;0.00;;;;;;;4.16;100.00;99555.01;1733710;80;22871;-47
2022/10/20 04:54:42;;;;;;;0.20;0.07;;;;;;;4.19;100.00;99554.45;1734995;80;21039;-48
2022/10/20 04:57:09;;;;;;;0.40;0.10;;;;;;;4.24;100.00;99558.80;1728542;80;21528;-47
2022/10/20 04:59:36;;;;;;;0.20;0.00;;;;;;;4.25;100.00;99557.44;1738425;80;21062;-48
2022/10/20 05:02:02;;;;;;;0.20;0.10;;;;;;;4.29;100.00;99556.88;1726157;81;21061;-47
2022/10/20 05:04:29;;;;;;;0.53;0.10;;;;;;;4.28;100.00;99557.34;1736515;80;21766;-46
2022/10/20 05:06:55;;;;;;;0.40;0.10;;;;;;;4.27;100.00;99567.58;1732362;80;21143;-47
2022/10/20 05:09:22;;;;;;;0.30;0.10;;;;;;;4.26;100.00;99567.16;1738012;81;21100;-47
2022/10/20 05:11:48;;;;;;;0.20;0.10;;;;;;;4.23;100.00;99571.25;1731846;80;21108;-48
2022/10/20 05:14:15;;;;;;;0.20;0.10;;;;;;;4.21;100.00;99568.20;1731447;81;21088;-48
2022/10/20 05:16:43;;;;;;;0.10;0.10;;;;;;;4.21;100.00;99578.40;1733538;81;21057;-47
2022/10/20 05:19:10;;;;;;;1.90;0.10;;;;;;;4.23;100.00;99578.37;1736512;82;21947;-46
2022/10/20 05:21:37;;;;;;;0.40;0.10;;;;;;;4.26;100.00;99564.48;1736280;81;21057;-47
2022/10/20 05:24:06;;;;;;;0.57;0.33;;;;;;;4.29;100.00;99577.75;1710512;80;21073;-47
2022/10/20 05:26:35;;;;;;;1.17;0.10;;;;;;;4.28;100.00;99583.98;1732914;80;21558;-48
2022/10/20 05:29:04;;;;;;;0.20;0.10;;;;;;;4.24;100.00;99590.32;1732382;80;21928;-48
2022/10/20 05:31:39;;;;;;;1.03;0.10;;;;;;;4.19;100.00;99584.21;1734190;80;21550;-47
2022/10/20 05:34:05;;;;;;;0.10;0.10;;;;;;;4.16;100.00;99590.97;1734426;80;21049;-48
2022/10/20 05:36:32;;;;;;;0.57;0.10;;;;;;;4.10;100.00;99603.09;1735598;80;21060;-48
2022/10/20 05:38:58;;;;;;;0.13;0.10;;;;;;;4.06;100.00;99596.10;1735140;80;21069;-48
2022/10/20 05:41:27;;;;;;;1.40;0.10;;;;;;;3.99;100.00;99598.05;1735616;80;21396;-49
2022/10/20 05:44:00;;;;;;;0.10;0.10;;;;;;;3.96;100.00;99599.44;1737396;80;21056;-50
2022/10/20 05:46:32;;;;;;;0.23;0.10;;;;;;;3.96;100.00;99615.42;1734687;80;21070;-48
2022/10/20 05:49:01;;;;;;;0.23;0.10;;;;;;;3.97;100.00;99604.31;1738573;80;21030;-48
2022/10/20 05:51:30;;;;;;;0.10;0.10;;;;;;;3.96;100.00;99610.09;1731251;80;21039;-49
2022/10/20 05:53:58;;;;;;;0.13;0.10;;;;;;;3.97;100.00;99617.63;1735640;81;21923;-48
2022/10/20 05:56:26;;;;;;;5.03;0.20;;;;;;;3.96;100.00;99614.09;1734606;80;21092;-49
2022/10/20 05:58:53;;;;;;;1.23;0.10;;;;;;;3.95;100.00;99622.11;1734547;80;21674;-48
2022/10/20 06:01:23;;;;;;;0.23;0.00;;;;;;;3.92;100.00;99623.50;1736417;80;21037;-48
2022/10/20 06:03:52;;;;;;;0.57;0.10;;;;;;;3.91;100.00;99624.44;1735001;81;21077;-48
2022/10/20 06:06:21;;;;;;;0.10;0.10;;;;;;;3.90;100.00;99630.22;1726990;80;21857;-49
2022/10/20 06:08:49;;;;;;;0.10;0.10;;;;;;;3.90;100.00;99636.00;1734314;80;21042;-49
2022/10/20 06:11:18;;;;;;;0.10;0.10;;;;;;;3.89;100.00;99635.57;1735950;80;21093;-48
2022/10/20 06:13:45;;;;;;;1.83;0.10;;;;;;;3.88;100.00;99632.03;1744625;80;20994;-48
2022/10/20 06:16:15;;;;;;;0.43;0.20;;;;;;;3.90;100.00;99638.20;1738133;80;20989;-47
2022/10/20 06:18:42;;;;;;;0.70;0.20;;;;;;;3.94;100.00;99631.88;1743434;80;22978;-48
2022/10/20 06:21:17;;;;;;;1.90;0.10;;;;;;;3.97;100.00;99641.59;1744846;80;20990;-48
2022/10/20 06:23:44;;;;;;;0.30;0.20;;;;;;;3.98;100.00;99633.58;1744623;80;21046;-48
2022/10/20 06:26:17;;;;;;;0.40;0.20;;;;;;;3.98;100.00;99632.25;1743657;80;21252;-48
2022/10/20 06:28:47;;;;;;;0.17;0.10;;;;;;;3.99;100.00;99638.45;1747521;80;21037;-48
2022/10/20 06:31:22;;;;;;;1.10;0.20;;;;;;;3.96;100.00;99648.70;1743558;80;21783;-48
2022/10/20 06:33:50;;;;;;;0.73;0.20;;;;;;;3.93;100.00;99646.55;1745645;80;20999;-48
2022/10/20 06:36:18;;;;;;;0.20;0.20;;;;;;;3.89;100.00;99652.42;1745019;80;21021;-48
2022/10/20 06:38:45;;;;;;;0.37;0.17;;;;;;;3.86;100.00;99644.50;1747249;80;21406;-48
2022/10/20 06:41:15;;;;;;;1.60;0.10;;;;;;;3.84;100.00;99643.65;1742427;80;21077;-48
2022/10/20 06:43:45;;;;;;;0.50;0.20;;;;;;;3.86;100.00;99644.50;1740456;80;21833;-48
2022/10/20 06:46:16;;;;;;;1.07;0.77;;;;;;;3.89;100.00;99653.76;1743498;80;22118;-48
2022/10/20 06:48:44;;;;;;;0.60;0.13;;;;;;;3.92;100.00;99653.67;1739914;80;21147;-48
2022/10/20 06:51:13;;;;;;;0.20;0.20;;;;;;;3.97;100.00;99658.91;1738499;80;22508;-48
2022/10/20 06:53:41;;;;;;;0.23;0.17;;;;;;;4.00;100.00;99654.81;1740729;80;21089;-49
2022/10/20 06:56:14;;;;;;;1.33;0.20;;;;;;;4.03;100.00;99662.75;1743178;80;21801;-48
2022/10/20 06:58:43;;;;;;;1.80;0.20;;;;;;;4.08;100.00;99662.20;1714463;80;21084;-48
2022/10/20 07:01:15;;;;;;;0.90;0.20;;;;;;;4.13;100.00;99676.28;1742204;80;21078;-48
2022/10/20 07:03:42;;;;;;;1.80;0.87;;;;;;;4.15;100.00;99675.34;1743704;80;21210;-48
2022/10/20 07:06:12;;;;;;;0.10;0.10;;;;;;;4.18;100.00;99678.37;1740087;80;21106;-49
2022/10/20 07:08:39;;;;;;;0.83;0.10;;;;;;;4.20;100.00;99675.22;1743270;80;21826;-48
2022/10/20 07:11:09;;;;;;;0.20;0.10;;;;;;;4.19;100.00;99673.46;1736122;80;21395;-48
2022/10/20 07:13:36;;;;;;;0.30;0.17;;;;;;;4.22;100.00;99669.86;1734968;80;21210;-47
2022/10/20 07:16:03;;;;;;;0.50;0.20;;;;;;;4.22;100.00;99669.41;1733184;80;21446;-49
2022/10/20 07:18:30;;;;;;;0.40;0.20;;;;;;;4.23;100.00;99671.16;1734648;80;21037;-48
2022/10/20 07:21:01;;;;;;;0.47;0.23;;;;;;;4.23;100.00;99667.62;1734127;80;21080;-49
2022/10/20 07:23:29;;;;;;;0.40;0.20;;;;;;;4.23;100.00;99672.49;1732522;80;21021;-48
2022/10/20 07:26:13;;;;;;;0.30;0.20;;;;;;;4.21;100.00;99676.09;1735304;80;21097;-48
2022/10/20 07:28:41;;;;;;;0.50;0.20;;;;;;;4.20;100.00;99672.55;1734557;80;21061;-48
2022/10/20 07:31:15;;;;;;;0.40;0.20;;;;;;;4.21;100.00;99683.63;1699913;82;21579;-48
2022/10/20 07:33:43;;;;;;;0.50;0.30;;;;;;;4.22;100.00;99680.06;1734549;80;21908;-48
2022/10/20 07:36:17;;;;;;;0.87;0.30;;;;;;;4.21;100.00;99678.77;1733516;80;20998;-48
2022/10/20 07:38:45;;;;;;;0.87;0.30;;;;;;;4.21;100.00;99686.30;1738743;80;21089;-47
2022/10/20 07:41:11;;;;;;;0.40;0.30;;;;;;;4.22;100.00;99689.84;1694447;82;21535;-48
2022/10/20 07:43:38;;;;;;;0.50;0.30;;;;;;;4.20;100.00;99695.20;1736926;80;21049;-48
2022/10/20 07:46:05;;;;;;;0.43;0.30;;;;;;;4.18;100.00;99697.89;1734474;80;21940;-48
2022/10/20 07:48:33;;;;;;;0.30;0.30;;;;;;;4.18;100.00;99695.68;1734872;81;21428;-47
2022/10/20 07:51:27;;;;;;;0.40;0.30;;;;;;;4.21;100.00;99707.61;1735274;80;21044;-47
2022/10/20 07:53:57;;;;;;;0.50;0.30;;;;;;;4.22;100.00;99711.16;1729085;80;21516;-48
2022/10/20 07:56:26;;;;;;;3.40;0.20;;;;;;;4.25;100.00;99707.98;1737404;80;21495;-48
2022/10/20 07:58:53;;;;;;;0.30;0.20;;;;;;;4.26;100.00;99706.16;1711448;81;21560;-46
2022/10/20 08:01:19;;;;;;;1.17;0.20;;;;;;;4.24;100.00;99714.22;1736561;80;21067;-47
2022/10/20 08:03:46;;;;;;;1.47;0.20;;;;;;;4.25;100.00;99706.64;1731141;80;21097;-46
2022/10/20 08:06:12;;;;;;;0.50;0.30;;;;;;;4.26;100.00;99719.48;1735019;80;21503;-47
2022/10/20 08:08:38;;;;;;;0.20;0.10;;;;;;;4.24;100.00;99719.55;1731959;80;21109;-44
2022/10/20 08:11:07;;;;;;;0.63;0.30;;;;;;;4.25;100.00;99717.30;1732353;80;21623;-45
2022/10/20 08:13:33;;;;;;;2.00;0.10;;;;;;;4.26;100.00;99720.81;1713852;81;21306;-46
2022/10/20 08:16:00;;;;;;;0.27;0.10;;;;;;;4.28;100.00;99720.33;1713093;82;20993;-47
2022/10/20 08:18:27;;;;;;;0.40;0.20;;;;;;;4.30;100.00;99720.72;1712742;82;21363;-44
2022/10/20 08:21:06;;;;;;;0.20;0.10;;;;;;;4.33;100.00;99728.66;1718426;82;21462;-46
2022/10/20 08:23:40;;;;;;;0.27;0.10;;;;;;;4.36;100.00;99722.36;1688302;82;22753;-47
2022/10/20 08:26:06;;;;;;;2.70;0.20;;;;;;;4.33;100.00;99723.33;1712331;82;21048;-45
2022/10/20 08:28:33;;;;;;;0.87;0.10;;;;;;;4.32;100.00;99734.89;1713300;82;21048;-48
2022/10/20 08:31:04;;;;;;;0.20;0.10;;;;;;;4.33;100.00;99733.11;1712345;82;21708;-48
2022/10/20 08:33:31;;;;;;;0.20;0.10;;;;;;;4.35;100.00;99739.25;1717531;82;21068;-45
2022/10/20 08:36:05;;;;;;;0.10;0.10;;;;;;;4.35;100.00;99740.13;1711880;82;21833;-44
2022/10/20 08:38:32;;;;;;;0.30;0.10;;;;;;;4.37;100.00;99738.31;1710140;82;21343;-45
2022/10/20 08:41:00;;;;;;;0.40;0.10;;;;;;;4.36;100.00;99746.34;1712658;82;21146;-45
2022/10/20 08:43:26;;;;;;;0.40;0.10;;;;;;;4.36;100.00;99746.34;1714513;82;22555;-47
2022/10/20 08:45:53;;;;;;;0.20;0.10;;;;;;;4.39;100.00;99743.16;1708909;82;21044;-45
2022/10/20 08:48:23;;;;;;;0.20;0.10;;;;;;;4.44;100.00;99755.03;1714328;82;21840;-46
2022/10/20 08:50:52;;;;;;;0.20;0.10;;;;;;;4.43;100.00;99750.16;1709822;82;21113;-46
2022/10/20 08:53:20;;;;;;;0.83;0.20;;;;;;;4.42;100.00;99752.88;1713111;82;21071;-47
2022/10/20 08:55:47;;;;;;;0.50;0.50;;;;;;;4.42;100.00;99757.73;1710661;81;21061;-47
2022/10/20 08:58:17;;;;;;;0.10;0.10;;;;;;;4.43;100.00;99760.81;1710010;82;22226;-46
2022/10/20 09:00:44;;;;;;;0.13;0.10;;;;;;;4.45;100.00;99764.78;1707764;82;21770;-45
2022/10/20 09:03:21;;;;;;;2.37;0.20;;;;;;;4.47;100.00;99766.97;1711343;82;21036;-44
2022/10/20 09:05:55;;;;;;;0.10;0.10;;;;;;;4.49;100.00;99768.69;1710155;82;21610;-44
2022/10/20 09:08:25;;;;;;;0.13;0.10;;;;;;;4.50;100.00;99773.11;1714513;82;21049;-45
2022/10/20 09:10:53;;;;;;;0.87;0.10;;;;;;;4.47;100.00;99771.84;1713270;82;20985;-44
2022/10/20 09:13:28;;;;;;;0.20;0.10;;;;;;;4.48;100.00;99777.59;1733768;80;21654;-43
2022/10/20 09:16:02;;;;;;;0.93;0.30;;;;;;;4.51;100.00;99781.95;1745055;80;20970;-44
2022/10/20 09:18:30;;;;;;;0.20;0.20;;;;;;;4.52;100.00;99783.72;1746788;80;21057;-44
2022/10/20 09:21:20;;;;;;;0.40;0.20;;;;;;;4.50;100.00;99782.45;1746044;80;20990;-43
2022/10/20 09:23:55;;;;;;;0.23;0.20;;;;;;;4.46;100.00;99778.53;1742507;80;21029;-45
2022/10/20 09:26:32;;;;;;;0.63;0.20;;;;;;;4.48;100.00;99776.72;1743029;80;21360;-44
2022/10/20 09:29:14;;;;;;;3.33;0.10;;;;;;;4.50;100.00;99783.78;1748416;80;21371;-45
2022/10/20 09:31:52;;;;;;;0.30;0.20;;;;;;;4.56;100.00;99782.30;1744745;80;21049;-46
2022/10/20 09:34:29;;;;;;;2.20;0.30;;;;;;;4.61;100.00;99780.84;1740268;80;21591;-44
2022/10/20 09:37:11;;;;;;;0.37;0.30;;;;;;;4.66;100.00;99789.63;1740134;80;21101;-44
2022/10/20 09:39:52;;;;;;;0.40;0.20;;;;;;;4.68;100.00;99789.10;1671831;80;21527;-45
2022/10/20 09:42:26;;;;;;;0.67;0.10;;;;;;;4.71;100.00;99791.70;1737089;80;21573;-44
2022/10/20 09:45:08;;;;;;;0.57;0.20;;;;;;;4.72;100.00;99792.59;1742335;80;21534;-45
2022/10/20 09:47:36;;;;;;;0.57;0.20;;;;;;;4.76;100.00;99797.83;1739851;80;21049;-45
2022/10/20 09:50:07;;;;;;;0.73;0.20;;;;;;;4.79;100.00;99801.73;1664296;80;21120;-45
2022/10/20 09:52:46;;;;;;;0.50;0.30;;;;;;;4.79;100.00;99799.52;1745592;80;21215;-45
2022/10/20 09:55:19;;;;;;;1.47;0.20;;;;;;;4.78;100.00;99807.98;1742953;80;21488;-46
2022/10/20 09:57:47;;;;;;;0.30;0.20;;;;;;;4.78;100.00;99812.43;1742546;80;21076;-45
2022/10/20 10:00:34;;;;;;;0.40;0.30;;;;;;;4.76;100.00;99810.28;1742119;80;21095;-45
2022/10/20 10:03:21;;;;;;;0.50;0.20;;;;;;;4.79;100.00;99807.52;1747061;80;21088;-45
2022/10/20 10:05:54;;;;;;;0.50;0.20;;;;;;;4.82;100.00;99816.80;1735869;80;22863;-45
2022/10/20 10:08:22;;;;;;;0.50;0.37;;;;;;;4.84;100.00;99816.31;1742845;80;21028;-45
2022/10/20 10:11:01;;;;;;;0.40;0.20;;;;;;;4.83;100.00;99822.09;1740229;80;21477;-45
2022/10/20 10:13:30;;;;;;;0.30;0.20;;;;;;;4.86;100.00;99826.00;1739591;80;21104;-46
2022/10/20 10:16:04;;;;;;;0.20;0.20;;;;;;;4.88;100.00;99823.30;1739415;80;21294;-46
2022/10/20 10:18:31;;;;;;;0.53;0.23;;;;;;;4.91;100.00;99824.58;1736749;80;21884;-45
2022/10/20 10:21:07;;;;;;;0.83;0.30;;;;;;;4.93;100.00;99830.27;1737988;80;22148;-45
2022/10/20 10:23:39;;;;;;;0.60;0.20;;;;;;;4.95;100.00;99831.58;1742285;80;21129;-45
2022/10/20 10:26:04;;;;;;;0.40;0.20;;;;;;;4.99;100.00;99833.72;1742683;80;21127;-46
2022/10/20 10:28:37;;;;;;;1.60;0.30;;;;;;;5.01;100.00;99828.78;1689172;80;21103;-44
2022/10/20 10:31:19;;;;;;;0.40;0.30;;;;;;;5.02;100.00;99829.17;1736575;80;24095;-46
2022/10/20 10:33:48;;;;;;;0.33;0.23;;;;;;;5.04;100.00;99831.80;1741773;80;21693;-44
2022/10/20 10:36:25;;;;;;;0.40;0.27;;;;;;;5.06;100.00;99826.86;1710311;80;21524;-44
2022/10/20 10:38:52;;;;;;;1.17;0.30;;;;;;;5.06;100.00;99828.20;1739336;80;21703;-44
2022/10/20 10:41:30;;;;;;;0.50;0.30;;;;;;;5.08;100.00;99837.05;1714502;81;21175;-48
2022/10/20 10:44:25;;;;;;;1.13;0.20;;;;;;;5.13;100.00;99833.80;1744584;80;21952;-46
2022/10/20 10:47:17;;;;;;;2.20;0.33;;;;;;;5.17;100.00;99824.81;1743048;80;21052;-46
2022/10/20 10:50:10;;;;;;;1.03;0.30;;;;;;;5.23;100.00;99830.44;1742080;80;21465;-48
2022/10/20 10:53:01;;;;;;;2.63;0.30;;;;;;;5.26;100.00;99829.92;1741436;80;21597;-44
2022/10/20 10:55:33;;;;;;;0.50;0.30;;;;;;;5.27;100.00;99824.97;1742426;80;21055;-46
2022/10/20 10:58:43;;;;;;;0.40;0.30;;;;;;;5.31;100.00;99828.45;1740656;80;21057;-48
2022/10/20 11:01:44;;;;;;;1.47;0.33;;;;;;;5.33;100.00;99829.30;1652771;85;21636;-47
2022/10/20 11:04:56;;;;;;;0.30;0.20;;;;;;;5.39;100.00;99825.58;1649657;85;21199;-48
2022/10/20 11:07:58;;;;;;;0.40;0.20;;;;;;;5.46;100.00;99828.50;1734020;80;21113;-47
2022/10/20 11:11:16;;;;;;;1.90;0.23;;;;;;;5.52;100.00;99829.70;1738994;80;21093;-46
2022/10/20 11:13:59;;;;;;;0.30;0.20;;;;;;;5.60;100.00;99826.36;1739418;80;21673;-46
2022/10/20 11:16:54;;;;;;;0.43;0.30;;;;;;;5.69;100.00;99826.12;1734799;80;21743;-47
2022/10/20 11:20:30;;;;;;;0.50;0.30;;;;;;;5.77;100.00;99832.58;1791276;78;22854;-48
2022/10/20 11:23:17;;;;;;;1.40;0.30;;;;;;;5.77;100.00;99833.91;1764883;79;21065;-47
2022/10/20 11:25:50;;;;;;;0.40;0.30;;;;;;;5.78;100.00;99829.00;1770956;79;21141;-48
2022/10/20 11:28:43;;;;;;;0.30;0.20;;;;;;;5.80;100.00;99836.02;1710069;81;21037;-48
2022/10/20 11:31:30;;;;;;;0.30;0.20;;;;;;;5.84;100.00;99832.83;1705123;81;21107;-47
2022/10/20 11:34:13;;;;;;;0.30;0.20;;;;;;;5.87;100.00;99829.59;1735199;81;21473;-48
2022/10/20 11:36:46;;;;;;;;;;;;;;;5.91;100.00;99831.77;1680230;82;21097;-48
2022/10/20 11:39:41;;;;;;;0.20;0.20;;;;;;;5.92;100.00;99833.06;1701811;82;21349;-48
2022/10/20 11:42:25;;;;;;;0.40;0.20;;;;;;;5.94;100.00;99844.59;1696725;82;29070;-48
2022/10/20 11:44:53;;;;;;;0.37;0.20;;;;;;;5.94;100.00;99851.27;1658909;82;21528;-46
2022/10/20 11:47:38;;;;;;;0.47;0.20;;;;;;;5.92;100.00;99857.11;1720195;82;22283;-46
2022/10/20 11:50:06;;;;;;;;;;;;;;;5.92;100.00;99853.55;1721982;82;21144;-46
2022/10/20 11:53:01;;;;;;;0.30;0.10;;;;;;;5.91;100.00;99862.03;1722340;82;21372;-46
2022/10/20 11:55:42;;;;;;;1.22;0.30;;;;;;;5.92;100.00;99861.11;1724772;82;21519;-46
2022/10/20 11:58:26;;;;;;;7.27;0.53;;;;;;;5.94;100.00;99863.75;1707374;82;21421;-46